createdAt,value
2022-08-20T00:00:55.131Z,18.10
2022-08-20T00:03:35.560Z,16.95
2022-08-20T00:06:11.340Z,15.55
2022-08-20T00:08:45.607Z,17.10
2022-08-20T00:11:18.500Z,18.63
2022-08-20T00:13:54.619Z,16.75
2022-08-20T00:16:27.132Z,18.48
2022-08-20T00:18:58.769Z,17.90
2022-08-20T00:21:29.151Z,17.30
2022-08-20T00:24:04.216Z,17.00
2022-08-20T00:26:34.368Z,16.40
2022-08-20T00:29:08.065Z,17.60
2022-08-20T00:31:40.378Z,17.65
2022-08-20T00:34:10.563Z,18.83
2022-08-20T00:36:41.998Z,19.70
2022-08-20T00:39:15.318Z,20.02
2022-08-20T00:41:47.958Z,19.88
2022-08-20T00:44:22.470Z,18.50
2022-08-20T00:46:56.099Z,21.33
2022-08-20T00:49:28.515Z,21.75
2022-08-20T00:52:03.764Z,21.13
2022-08-20T00:54:49.966Z,21.80
2022-08-20T00:57:29.124Z,22.02
2022-08-20T01:00:28.107Z,24.05
2022-08-20T01:03:00.900Z,24.60
2022-08-20T01:05:32.311Z,25.45
2022-08-20T01:08:04.025Z,25.63
2022-08-20T01:10:41.283Z,26.45
2022-08-20T01:13:15.897Z,24.90
2022-08-20T01:15:51.923Z,24.42
2022-08-20T01:18:27.211Z,24.35
2022-08-20T01:20:59.313Z,23.58
2022-08-20T01:23:36.459Z,22.27
2022-08-20T01:26:13.319Z,21.60
2022-08-20T01:28:47.815Z,20.35
2022-08-20T01:31:21.474Z,20.67
2022-08-20T01:33:53.013Z,21.45
2022-08-20T01:36:27.667Z,20.25
2022-08-20T01:38:59.570Z,20.63
2022-08-20T01:41:47.564Z,21.30
2022-08-20T01:44:22.033Z,19.60
2022-08-20T01:46:57.948Z,20.58
2022-08-20T01:49:35.030Z,24.10
2022-08-20T01:52:11.481Z,24.00
2022-08-20T01:54:43.599Z,26.17
2022-08-20T01:57:22.029Z,25.95
2022-08-20T01:59:53.787Z,24.10
2022-08-20T02:02:27.741Z,22.95
2022-08-20T02:05:00.989Z,21.00
2022-08-20T02:07:32.499Z,19.83
2022-08-20T02:10:04.379Z,17.95
2022-08-20T02:12:40.044Z,17.05
2022-08-20T02:15:14.327Z,16.52
2022-08-20T02:17:45.509Z,16.50
2022-08-20T02:20:18.991Z,14.30
2022-08-20T02:22:53.468Z,14.43
2022-08-20T02:25:28.195Z,13.88
2022-08-20T02:28:08.123Z,12.45
2022-08-20T02:30:44.033Z,10.45
2022-08-20T02:33:17.887Z,13.00
2022-08-20T02:35:52.862Z,11.77
2022-08-20T02:38:23.728Z,15.55
2022-08-20T02:40:56.444Z,14.95
2022-08-20T02:43:29.525Z,13.27
2022-08-20T02:46:01.333Z,12.93
2022-08-20T02:48:33.695Z,12.57
2022-08-20T02:51:07.561Z,13.35
2022-08-20T02:53:41.403Z,12.82
2022-08-20T02:56:13.502Z,13.73
2022-08-20T02:58:50.425Z,12.23
2022-08-20T03:01:22.318Z,13.13
2022-08-20T03:03:54.971Z,13.63
2022-08-20T03:06:26.382Z,12.63
2022-08-20T03:08:57.665Z,12.25
2022-08-20T03:11:29.319Z,12.15
2022-08-20T03:14:04.649Z,12.35
2022-08-20T03:16:36.458Z,10.90
2022-08-20T03:19:08.675Z,10.85
2022-08-20T03:21:40.013Z,10.50
2022-08-20T03:24:12.902Z,12.20
2022-08-20T03:26:44.195Z,12.15
2022-08-20T03:29:21.092Z,12.23
2022-08-20T03:31:51.799Z,12.25
2022-08-20T03:34:28.326Z,12.18
2022-08-20T03:36:59.785Z,12.65
2022-08-20T03:39:31.584Z,11.98
2022-08-20T03:42:04.129Z,11.43
2022-08-20T03:44:42.070Z,12.27
2022-08-20T03:47:12.711Z,11.68
2022-08-20T03:49:43.420Z,10.88
2022-08-20T03:52:15.379Z,11.95
2022-08-20T03:54:46.549Z,10.90
2022-08-20T03:57:19.254Z,11.13
2022-08-20T03:59:58.178Z,11.07
2022-08-20T04:02:30.342Z,10.73
2022-08-20T04:05:01.165Z,11.98
2022-08-20T04:07:34.364Z,12.02
2022-08-20T04:10:11.154Z,11.38
2022-08-20T04:12:52.784Z,11.95
2022-08-20T04:15:34.690Z,11.07
2022-08-20T04:18:07.928Z,11.65
2022-08-20T04:20:40.737Z,10.45
2022-08-20T04:23:11.321Z,11.05
2022-08-20T04:25:43.581Z,12.43
2022-08-20T04:28:28.900Z,11.55
2022-08-20T04:31:06.851Z,11.70
2022-08-20T04:33:38.720Z,12.10
2022-08-20T04:36:11.571Z,12.20
2022-08-20T04:38:47.939Z,10.85
2022-08-20T04:41:24.308Z,10.38
2022-08-20T04:43:59.137Z,12.48
2022-08-20T04:46:46.571Z,12.50
2022-08-20T04:49:17.130Z,11.85
2022-08-20T04:51:47.649Z,12.43
2022-08-20T04:54:21.593Z,12.02
2022-08-20T04:56:52.307Z,13.70
2022-08-20T04:59:23.151Z,12.38
2022-08-20T05:01:58.466Z,12.15
2022-08-20T05:04:29.867Z,11.77
2022-08-20T05:07:01.171Z,12.63
2022-08-20T05:09:43.862Z,12.77
2022-08-20T05:12:18.277Z,11.15
2022-08-20T05:14:49.367Z,11.00
2022-08-20T05:17:25.548Z,11.73
2022-08-20T05:19:56.230Z,12.30
2022-08-20T05:22:27.699Z,11.50
2022-08-20T05:25:05.953Z,10.63
2022-08-20T05:27:43.579Z,11.68
2022-08-20T05:30:17.080Z,10.80
2022-08-20T05:32:53.112Z,11.02
2022-08-20T05:35:23.968Z,11.10
2022-08-20T05:37:54.657Z,10.18
2022-08-20T05:40:26.491Z,10.55
2022-08-20T05:42:58.701Z,11.43
2022-08-20T05:45:30.899Z,10.80
2022-08-20T05:48:08.808Z,9.57
2022-08-20T05:50:42.864Z,9.95
2022-08-20T05:53:14.336Z,12.20
2022-08-20T05:55:46.574Z,12.15
2022-08-20T05:58:24.982Z,12.63
2022-08-20T06:00:59.723Z,12.85
2022-08-20T06:03:48.124Z,14.30
2022-08-20T06:06:46.294Z,11.10
2022-08-20T06:09:12.300Z,13.10
2022-08-20T06:11:42.786Z,13.43
2022-08-20T06:14:16.815Z,12.32
2022-08-20T06:16:57.277Z,13.23
2022-08-20T06:19:33.872Z,12.73
2022-08-20T06:22:08.616Z,14.43
2022-08-20T06:24:48.815Z,13.63
2022-08-20T06:27:19.827Z,13.85
2022-08-20T06:29:51.743Z,14.50
2022-08-20T06:32:32.803Z,11.90
2022-08-20T06:35:09.995Z,12.52
2022-08-20T06:37:43.537Z,12.80
2022-08-20T06:40:18.597Z,13.63
2022-08-20T06:42:54.468Z,13.00
2022-08-20T06:45:28.245Z,10.93
2022-08-20T06:48:01.647Z,11.50
2022-08-20T06:53:20.877Z,11.25
2022-08-20T06:55:55.647Z,12.00
2022-08-20T06:58:37.874Z,12.65
2022-08-20T07:01:11.757Z,12.10
2022-08-20T07:03:54.402Z,11.27
2022-08-20T07:06:32.176Z,11.88
2022-08-20T07:09:03.101Z,12.07
2022-08-20T07:11:35.657Z,10.95
2022-08-20T07:14:06.483Z,11.37
2022-08-20T07:16:37.060Z,10.65
2022-08-20T07:19:08.681Z,10.77
2022-08-20T07:21:41.986Z,11.35
2022-08-20T07:26:44.297Z,12.05
2022-08-20T07:29:14.894Z,11.75
2022-08-20T07:32:10.192Z,11.60
2022-08-20T07:34:43.721Z,10.05
2022-08-20T07:37:18.025Z,9.98
2022-08-20T07:39:52.733Z,9.95
2022-08-20T07:42:26.666Z,10.32
2022-08-20T07:44:57.217Z,11.00
2022-08-20T07:47:30.655Z,11.20
2022-08-20T07:52:36.271Z,11.50
2022-08-20T07:57:44.725Z,13.60
2022-08-20T08:00:16.943Z,12.27
2022-08-20T08:02:48.902Z,14.07
2022-08-20T08:05:19.441Z,13.35
2022-08-20T08:07:54.881Z,12.77
2022-08-20T08:10:27.327Z,13.40
2022-08-20T08:13:02.109Z,13.77
2022-08-20T08:15:37.597Z,13.10
2022-08-20T08:18:11.950Z,13.10
2022-08-20T08:20:46.651Z,13.52
2022-08-20T08:23:24.708Z,14.27
2022-08-20T08:26:03.088Z,12.95
2022-08-20T08:28:37.393Z,14.50
2022-08-20T08:31:10.317Z,16.25
2022-08-20T08:33:42.496Z,16.33
2022-08-20T08:36:15.147Z,15.60
2022-08-20T08:38:50.809Z,14.10
2022-08-20T08:41:29.974Z,15.30
2022-08-20T08:44:12.279Z,13.57
2022-08-20T08:46:48.717Z,12.85
2022-08-20T08:49:30.269Z,13.73
2022-08-20T08:52:16.400Z,14.35
2022-08-20T08:54:52.543Z,15.32
2022-08-20T08:57:23.595Z,16.95
2022-08-20T09:00:03.965Z,16.85
2022-08-20T09:02:39.872Z,17.15
2022-08-20T09:05:19.740Z,15.98
2022-08-20T09:07:55.107Z,15.57
2022-08-20T09:10:34.656Z,17.48
2022-08-20T09:13:05.071Z,18.25
2022-08-20T09:15:36.043Z,16.85
2022-08-20T09:18:08.263Z,15.52
2022-08-20T09:20:41.273Z,15.60
2022-08-20T09:23:12.178Z,14.70
2022-08-20T09:25:45.875Z,14.35
2022-08-20T09:28:17.481Z,12.43
2022-08-20T09:30:50.977Z,12.25
2022-08-20T09:33:23.292Z,12.02
2022-08-20T09:35:54.459Z,14.00
2022-08-20T09:38:26.085Z,10.80
2022-08-20T09:41:02.143Z,9.18
2022-08-20T09:43:32.491Z,11.32
2022-08-20T09:46:05.926Z,9.45
2022-08-20T09:48:36.296Z,7.30
2022-08-20T09:51:07.386Z,7.30
2022-08-20T09:53:38.178Z,7.18
2022-08-20T09:56:12.222Z,6.97
2022-08-20T09:58:52.521Z,8.95
2022-08-20T10:01:26.221Z,8.10
2022-08-20T10:03:56.475Z,8.80
2022-08-20T10:06:26.934Z,8.90
2022-08-20T10:08:58.845Z,7.97
2022-08-20T10:11:32.024Z,9.30
2022-08-20T10:14:03.766Z,7.47
2022-08-20T10:16:34.816Z,7.40
2022-08-20T10:19:07.221Z,7.75
2022-08-20T10:21:39.261Z,7.43
2022-08-20T10:24:18.467Z,6.32
2022-08-20T10:26:53.915Z,6.50
2022-08-20T10:29:25.107Z,5.88
2022-08-20T10:31:57.418Z,7.07
2022-08-20T10:34:28.617Z,5.90
2022-08-20T10:37:01.135Z,5.43
2022-08-20T10:39:31.551Z,5.40
2022-08-20T10:42:05.101Z,5.20
2022-08-20T10:44:35.619Z,6.25
2022-08-20T10:47:23.758Z,6.97
2022-08-20T10:49:56.737Z,6.65
2022-08-20T10:52:29.147Z,8.30
2022-08-20T10:55:06.053Z,7.60
2022-08-20T10:57:41.929Z,9.82
2022-08-20T11:00:16.963Z,8.35
2022-08-20T11:02:47.434Z,8.23
2022-08-20T11:05:18.423Z,9.07
2022-08-20T11:07:54.987Z,8.15
2022-08-20T11:10:29.292Z,8.77
2022-08-20T11:13:05.699Z,8.47
2022-08-20T11:15:37.496Z,8.10
2022-08-20T11:18:10.164Z,7.10
2022-08-20T11:20:40.377Z,8.13
2022-08-20T11:25:44.773Z,8.20
2022-08-20T11:28:31.229Z,7.43
2022-08-20T11:31:05.075Z,7.88
2022-08-20T11:33:35.563Z,7.72
2022-08-20T11:36:07.492Z,6.72
2022-08-20T11:38:38.013Z,7.60
2022-08-20T11:41:09.557Z,7.10
2022-08-20T11:43:55.013Z,6.55
2022-08-20T11:46:35.883Z,5.78
2022-08-20T11:49:08.090Z,6.32
2022-08-20T11:51:49.449Z,6.55
2022-08-20T11:54:24.592Z,5.80
2022-08-20T11:56:58.380Z,6.03
2022-08-20T11:59:43.118Z,5.70
2022-08-20T12:02:17.210Z,7.13
2022-08-20T12:05:01.067Z,5.38
2022-08-20T12:07:32.569Z,5.60
2022-08-20T12:10:12.193Z,6.30
2022-08-20T12:12:43.246Z,5.82
2022-08-20T12:15:18.709Z,5.57
2022-08-20T12:17:49.043Z,5.78
2022-08-20T12:20:19.930Z,6.55
2022-08-20T12:22:50.260Z,6.65
2022-08-20T12:25:22.085Z,6.10
2022-08-20T12:27:53.257Z,6.45
2022-08-20T12:30:29.323Z,6.65
2022-08-20T12:33:01.875Z,5.57
2022-08-20T12:35:32.483Z,6.10
2022-08-20T12:38:06.966Z,6.65
2022-08-20T12:40:39.271Z,6.57
2022-08-20T12:43:11.489Z,7.00
2022-08-20T12:45:45.898Z,7.78
2022-08-20T12:48:21.257Z,6.82
2022-08-20T12:50:57.534Z,6.88
2022-08-20T12:53:28.095Z,5.55
2022-08-20T12:55:58.512Z,6.28
2022-08-20T12:58:30.734Z,6.38
2022-08-20T13:01:09.527Z,6.95
2022-08-20T13:03:43.061Z,7.00
2022-08-20T13:06:15.614Z,6.45
2022-08-20T13:08:47.204Z,6.32
2022-08-20T13:11:18.139Z,5.95
2022-08-20T13:13:52.126Z,6.68
2022-08-20T13:16:28.979Z,6.10
2022-08-20T13:19:02.023Z,6.15
2022-08-20T13:21:34.389Z,7.80
2022-08-20T13:24:05.130Z,7.43
2022-08-20T13:26:35.715Z,6.75
2022-08-20T13:29:07.984Z,7.15
2022-08-20T13:31:41.881Z,7.68
2022-08-20T13:34:12.516Z,7.32
2022-08-20T13:36:43.481Z,6.90
2022-08-20T13:39:13.579Z,7.63
2022-08-20T13:41:44.424Z,6.90
2022-08-20T13:44:14.919Z,6.80
2022-08-20T13:46:51.140Z,7.22
2022-08-20T13:49:25.530Z,6.60
2022-08-20T13:52:00.232Z,6.70
2022-08-20T13:54:33.434Z,6.07
2022-08-20T13:57:10.031Z,7.17
2022-08-20T13:59:43.176Z,6.47
2022-08-20T14:04:48.533Z,6.43
2022-08-20T14:07:23.716Z,5.78
2022-08-20T14:09:58.452Z,6.13
2022-08-20T14:12:31.016Z,5.70
2022-08-20T14:15:09.235Z,6.20
2022-08-20T14:17:45.435Z,5.88
2022-08-20T14:20:23.364Z,5.82
2022-08-20T14:22:54.007Z,5.68
2022-08-20T14:25:27.757Z,6.38
2022-08-20T14:27:58.724Z,6.28
2022-08-20T14:30:32.728Z,5.10
2022-08-20T14:33:05.690Z,6.72
2022-08-20T14:35:36.301Z,5.10
2022-08-20T14:38:06.516Z,5.13
2022-08-20T14:40:38.342Z,4.93
2022-08-20T14:43:08.512Z,4.80
2022-08-20T14:45:39.190Z,4.80
2022-08-20T14:48:12.261Z,5.65
2022-08-20T14:50:43.356Z,5.22
2022-08-20T14:53:13.675Z,5.80
2022-08-20T14:55:43.814Z,6.07
2022-08-20T14:58:19.557Z,5.97
2022-08-20T15:00:50.353Z,5.78
2022-08-20T15:03:33.123Z,6.15
2022-08-20T15:06:04.084Z,6.25
2022-08-20T15:08:36.507Z,5.25
2022-08-20T15:11:11.752Z,6.68
2022-08-20T15:13:49.883Z,5.90
2022-08-20T15:16:20.307Z,6.15
2022-08-20T15:18:56.465Z,6.28
2022-08-20T15:21:30.431Z,6.22
2022-08-20T15:24:19.318Z,5.55
2022-08-20T15:26:50.586Z,5.82
2022-08-20T15:29:23.302Z,7.47
2022-08-20T15:31:54.130Z,8.15
2022-08-20T15:34:27.084Z,8.00
2022-08-20T15:36:59.348Z,8.95
2022-08-20T15:39:31.074Z,8.70
2022-08-20T15:42:01.467Z,8.43
2022-08-20T15:44:31.601Z,7.85
2022-08-20T15:47:23.060Z,8.38
2022-08-20T15:49:59.487Z,8.40
2022-08-20T15:52:40.300Z,8.10
2022-08-20T15:55:15.361Z,8.13
2022-08-20T15:57:56.596Z,8.77
2022-08-20T16:00:32.180Z,8.63
2022-08-20T16:03:28.029Z,8.30
2022-08-20T16:06:05.913Z,7.45
2022-08-20T16:08:49.798Z,7.05
2022-08-20T16:11:30.578Z,7.97
2022-08-20T16:14:12.752Z,7.85
2022-08-20T16:16:47.358Z,7.90
2022-08-20T16:19:24.635Z,8.57
2022-08-20T16:22:00.701Z,8.65
2022-08-20T16:24:31.746Z,9.88
2022-08-20T16:27:21.543Z,9.95
2022-08-20T16:29:59.736Z,11.32
2022-08-20T16:32:39.364Z,10.20
2022-08-20T16:35:33.681Z,10.43
2022-08-20T16:38:21.181Z,9.02
2022-08-20T16:41:00.580Z,9.82
2022-08-20T16:43:37.820Z,10.65
2022-08-20T16:46:15.178Z,10.98
2022-08-20T16:48:58.093Z,11.43
2022-08-20T16:54:31.065Z,13.25
2022-08-20T16:57:04.112Z,12.65
2022-08-20T16:59:35.301Z,12.68
2022-08-20T17:02:11.023Z,12.40
2022-08-20T17:05:06.593Z,12.40
2022-08-20T17:07:51.549Z,11.18
2022-08-20T17:10:29.816Z,10.02
2022-08-20T17:13:03.146Z,11.02
2022-08-20T17:15:36.473Z,10.15
2022-08-20T17:18:23.367Z,9.77
2022-08-20T17:20:56.013Z,9.95
2022-08-20T17:23:26.596Z,10.40
2022-08-20T17:26:06.287Z,9.05
2022-08-20T17:28:40.887Z,9.02
2022-08-20T17:31:11.535Z,8.43
2022-08-20T17:33:43.112Z,8.10
2022-08-20T17:36:26.430Z,8.82
2022-08-20T17:39:02.375Z,7.65
2022-08-20T17:41:38.920Z,8.93
2022-08-20T17:44:21.452Z,9.02
2022-08-20T17:46:52.809Z,8.63
2022-08-20T17:49:35.922Z,7.57
2022-08-20T17:52:17.041Z,8.02
2022-08-20T17:54:52.281Z,8.77
2022-08-20T17:57:30.153Z,10.18
2022-08-20T18:00:05.696Z,10.15
2022-08-20T18:02:37.800Z,9.07
2022-08-20T18:05:24.807Z,8.50
2022-08-20T18:08:15.140Z,8.75
2022-08-20T18:10:58.694Z,9.70
2022-08-20T18:16:31.443Z,11.63
2022-08-20T18:19:18.127Z,10.80
2022-08-20T18:22:14.592Z,10.52
2022-08-20T18:24:52.533Z,10.05
2022-08-20T18:27:30.114Z,11.13
2022-08-20T18:30:04.607Z,11.13
2022-08-20T18:32:37.856Z,10.85
2022-08-20T18:35:18.610Z,11.50
2022-08-20T18:37:50.906Z,10.02
2022-08-20T18:40:33.131Z,10.50
2022-08-20T18:43:15.476Z,10.27
2022-08-20T18:45:55.020Z,9.80
2022-08-20T18:48:27.959Z,9.57
2022-08-20T18:51:00.660Z,10.13
2022-08-20T18:53:36.447Z,9.07
2022-08-20T18:56:11.535Z,9.05
2022-08-20T18:58:57.638Z,8.82
2022-08-20T19:01:31.340Z,7.75
2022-08-20T19:04:03.626Z,7.93
2022-08-20T19:06:43.520Z,8.43
2022-08-20T19:09:23.666Z,9.15
2022-08-20T19:12:24.243Z,8.77
2022-08-20T19:15:07.097Z,7.95
2022-08-20T19:17:59.470Z,10.25
2022-08-20T19:20:34.587Z,9.02
2022-08-20T19:23:12.006Z,7.82
2022-08-20T19:25:56.695Z,8.35
2022-08-20T19:28:31.659Z,9.23
2022-08-20T19:31:12.839Z,9.77
2022-08-20T19:33:47.599Z,8.48
2022-08-20T19:36:28.563Z,9.30
2022-08-20T19:39:01.865Z,8.45
2022-08-20T19:44:08.445Z,8.73
2022-08-20T19:46:42.641Z,9.10
2022-08-20T19:49:26.815Z,8.82
2022-08-20T19:52:15.371Z,8.00
2022-08-20T19:54:52.037Z,8.52
2022-08-20T19:57:24.843Z,8.95
2022-08-20T19:59:58.774Z,9.80
2022-08-20T20:02:33.144Z,9.10
2022-08-20T20:05:11.637Z,10.68
2022-08-20T20:07:50.410Z,10.07
2022-08-20T20:10:32.935Z,10.20
2022-08-20T20:13:10.676Z,8.95
2022-08-20T20:15:43.710Z,9.75
2022-08-20T20:18:15.195Z,8.88
2022-08-20T20:21:13.706Z,7.97
2022-08-20T20:23:52.416Z,9.93
2022-08-20T20:26:32.582Z,7.97
2022-08-20T20:29:10.192Z,8.88
2022-08-20T20:31:52.337Z,9.30
2022-08-20T20:34:29.264Z,9.82
2022-08-20T20:37:11.847Z,11.32
2022-08-20T20:39:48.677Z,14.32
2022-08-20T20:42:29.716Z,18.45
2022-08-20T20:45:04.150Z,17.08
2022-08-20T20:47:37.144Z,16.58
2022-08-20T20:50:13.630Z,15.73
2022-08-20T20:52:57.895Z,17.30
2022-08-20T20:55:30.817Z,18.45
2022-08-20T20:58:02.665Z,17.90
2022-08-20T21:00:36.968Z,19.52
2022-08-20T21:03:07.279Z,19.17
2022-08-20T21:05:44.041Z,21.00
2022-08-20T21:08:23.630Z,20.13
2022-08-20T21:10:56.818Z,21.25
2022-08-20T21:13:27.134Z,21.65
2022-08-20T21:16:07.177Z,21.95
2022-08-20T21:18:38.690Z,23.70
2022-08-20T21:21:10.976Z,23.45
2022-08-20T21:23:43.892Z,25.25
2022-08-20T21:26:14.660Z,23.23
2022-08-20T21:28:45.185Z,20.13
2022-08-20T21:31:16.988Z,22.02
2022-08-20T21:33:47.090Z,19.73
2022-08-20T21:36:20.740Z,17.15
2022-08-20T21:38:55.059Z,17.35
2022-08-20T21:41:29.817Z,14.77
2022-08-20T21:44:00.363Z,13.25
2022-08-20T21:46:30.946Z,13.35
2022-08-20T21:49:02.578Z,11.77
2022-08-20T21:51:33.411Z,11.15
2022-08-20T21:54:06.868Z,10.02
2022-08-20T21:56:38.835Z,8.88
2022-08-20T21:59:12.148Z,8.10
2022-08-20T22:01:43.512Z,7.25
2022-08-20T22:04:14.828Z,6.28
2022-08-20T22:06:45.498Z,5.32
2022-08-20T22:09:21.432Z,5.30
2022-08-20T22:11:54.648Z,4.28
2022-08-20T22:14:29.523Z,4.63
2022-08-20T22:17:00.490Z,5.10
2022-08-20T22:19:31.070Z,4.15
2022-08-20T22:22:01.273Z,4.05
2022-08-20T22:24:34.226Z,4.10
2022-08-20T22:27:04.361Z,4.57
2022-08-20T22:29:40.591Z,4.80
2022-08-20T22:32:11.236Z,4.35
2022-08-20T22:34:49.635Z,5.05
2022-08-20T22:37:19.794Z,4.68
2022-08-20T22:39:56.678Z,5.43
2022-08-20T22:42:30.733Z,5.05
2022-08-20T22:45:00.822Z,5.20
2022-08-20T22:47:32.484Z,5.00
2022-08-20T22:50:02.667Z,5.05
2022-08-20T22:52:34.633Z,5.45
2022-08-20T22:55:10.965Z,5.82
2022-08-20T22:57:42.153Z,5.38
2022-08-20T23:00:20.683Z,5.72
2022-08-20T23:02:55.850Z,5.18
2022-08-20T23:05:30.430Z,4.88
2022-08-20T23:08:02.383Z,4.28
2022-08-20T23:10:39.696Z,4.00
2022-08-20T23:13:11.205Z,3.67
2022-08-20T23:15:45.566Z,3.75
2022-08-20T23:18:20.108Z,4.13
2022-08-20T23:20:56.739Z,4.38
2022-08-20T23:23:37.169Z,4.07
2022-08-20T23:26:11.081Z,3.55
2022-08-20T23:28:41.351Z,4.13
2022-08-20T23:31:11.667Z,5.43
2022-08-20T23:33:44.827Z,4.80
2022-08-20T23:36:19.742Z,4.22
2022-08-20T23:38:50.367Z,4.68
2022-08-20T23:41:24.815Z,4.43
2022-08-20T23:43:55.633Z,3.97
2022-08-20T23:46:31.658Z,4.30
2022-08-20T23:49:02.360Z,4.35
2022-08-20T23:51:33.880Z,4.00
2022-08-20T23:54:09.920Z,3.92
2022-08-20T23:56:42.889Z,4.35
2022-08-20T23:59:13.356Z,4.75
